Time;durP1;ratioP1;P1;durP2;ratioP2;P2;SDS_P1;SDS_P2;PMS_P1;PMS_P2;Temp;Humidity;BMP_temperature;BMP_pressure;BME280_temperature;BME280_humidity;BME280_pressure;Samples;Min_cycle;Max_cycle;Signal;HPM_P1;HPM_P2
2022/06/26 00:01:39;;;;;;;0.40;0.40;;;19.90;99.90;;;;;;4938656;29;20041;-91
2022/06/26 00:04:04;;;;;;;0.38;0.38;;;19.90;99.90;;;;;;4939414;29;20030;-92
2022/06/26 00:06:30;;;;;;;0.57;0.57;;;19.90;99.90;;;;;;4923154;29;20032;-92
2022/06/26 00:08:56;;;;;;;0.50;0.20;;;19.90;99.90;;;;;;4923458;29;20387;-91
2022/06/26 00:11:22;;;;;;;0.32;0.32;;;19.90;99.90;;;;;;4939088;29;20035;-91
2022/06/26 00:13:49;;;;;;;0.10;0.10;;;19.90;99.90;;;;;;4938852;29;20031;-92
2022/06/26 00:16:15;;;;;;;0.13;0.13;;;19.80;99.90;;;;;;4923321;29;20061;-91
2022/06/26 00:18:44;;;;;;;3.63;1.00;;;19.80;99.90;;;;;;4938842;29;20047;-92
2022/06/26 00:21:09;;;;;;;0.13;0.13;;;19.80;99.90;;;;;;4938969;29;20027;-91
2022/06/26 00:23:35;;;;;;;0.28;0.28;;;19.80;99.90;;;;;;4923271;29;20028;-91
2022/06/26 00:26:03;;;;;;;0.50;0.50;;;19.80;99.90;;;;;;4939360;29;20039;-92
2022/06/26 00:28:30;;;;;;;0.82;0.65;;;19.80;99.90;;;;;;4939277;29;20031;-92
2022/06/26 00:30:55;;;;;;;0.90;0.65;;;19.80;99.90;;;;;;4938509;29;20031;-91
2022/06/26 00:33:22;;;;;;;0.50;0.38;;;19.90;99.90;;;;;;4938606;29;20034;-91
2022/06/26 00:35:48;;;;;;;0.35;0.35;;;19.90;99.90;;;;;;4938700;29;20039;-91
2022/06/26 00:38:13;;;;;;;3.60;0.52;;;19.90;99.90;;;;;;4938542;29;20110;-91
2022/06/26 00:40:40;;;;;;;0.20;0.20;;;19.90;99.90;;;;;;4923250;29;20410;-91
2022/06/26 00:43:07;;;;;;;0.85;0.85;;;19.90;99.90;;;;;;4923199;29;20027;-91
2022/06/26 00:45:33;;;;;;;0.43;0.40;;;19.90;99.90;;;;;;4955830;29;20030;-91
2022/06/26 00:47:59;;;;;;;0.10;0.10;;;19.90;99.90;;;;;;4923091;29;20031;-93
2022/06/26 00:50:25;;;;;;;0.30;0.30;;;20.00;99.90;;;;;;4938684;29;20020;-93
2022/06/26 00:52:53;;;;;;;1.75;0.75;;;20.00;99.90;;;;;;4955897;29;20026;-94
2022/06/26 00:55:19;;;;;;;0.32;0.25;;;20.00;99.90;;;;;;4938708;28;20035;-94
2022/06/26 00:57:46;;;;;;;0.90;0.90;;;20.00;99.90;;;;;;4942291;29;20058;-94
2022/06/26 01:00:15;;;;;;;0.55;0.30;;;20.00;99.90;;;;;;4926180;29;20130;-96
2022/06/26 01:02:41;;;;;;;0.10;0.10;;;20.00;99.90;;;;;;4941841;29;20037;-93
2022/06/26 01:05:08;;;;;;;0.98;0.68;;;20.00;99.90;;;;;;4941939;29;20079;-91
2022/06/26 01:07:34;;;;;;;0.10;0.10;;;20.00;99.90;;;;;;4959201;29;20031;-92
2022/06/26 01:10:02;;;;;;;0.55;0.55;;;20.00;99.90;;;;;;4942186;29;20030;-94
2022/06/26 01:12:28;;;;;;;0.10;0.10;;;20.00;99.90;;;;;;4941805;29;20031;-93
2022/06/26 01:14:54;;;;;;;0.15;0.15;;;20.00;99.90;;;;;;4941658;29;20493;-93
2022/06/26 01:17:20;;;;;;;0.00;0.00;;;20.00;99.90;;;;;;4941849;29;20055;-93
2022/06/26 01:19:46;;;;;;;1.08;1.02;;;20.00;99.90;;;;;;4941834;29;20027;-93
2022/06/26 01:22:12;;;;;;;1.20;1.10;;;20.00;99.90;;;;;;4941575;29;20026;-94
2022/06/26 01:24:38;;;;;;;0.40;0.40;;;20.00;99.90;;;;;;4941569;29;20473;-93
2022/06/26 01:27:04;;;;;;;0.00;0.00;;;20.00;99.90;;;;;;4958722;29;20031;-94
2022/06/26 01:29:31;;;;;;;0.50;0.30;;;20.00;99.90;;;;;;4941013;29;20082;-93
2022/06/26 01:31:57;;;;;;;0.20;0.20;;;20.00;99.90;;;;;;4941368;29;20023;-93
2022/06/26 01:34:23;;;;;;;0.28;0.28;;;20.00;99.90;;;;;;4925901;29;20130;-93
2022/06/26 01:36:49;;;;;;;0.30;0.30;;;19.90;99.90;;;;;;4941506;29;20118;-93
2022/06/26 01:39:18;;;;;;;0.55;0.55;;;19.90;99.90;;;;;;4941407;29;20035;-93
2022/06/26 01:41:44;;;;;;;0.00;0.00;;;19.90;99.90;;;;;;4941597;29;20020;-93
2022/06/26 01:44:10;;;;;;;0.00;0.00;;;20.00;99.90;;;;;;4941361;29;20027;-93
2022/06/26 01:46:36;;;;;;;0.35;0.35;;;20.00;99.90;;;;;;4941669;29;20167;-93
2022/06/26 01:49:03;;;;;;;0.10;0.10;;;19.90;99.90;;;;;;4941316;29;20031;-93
2022/06/26 01:51:29;;;;;;;0.28;0.28;;;19.90;99.90;;;;;;4958266;29;20031;-94
2022/06/26 01:53:55;;;;;;;0.17;0.17;;;19.90;99.90;;;;;;4958280;29;20046;-93
2022/06/26 01:56:21;;;;;;;0.05;0.05;;;19.80;99.90;;;;;;4940873;29;20117;-93
2022/06/26 01:58:47;;;;;;;0.05;0.05;;;19.70;99.90;;;;;;4941221;29;20023;-93
2022/06/26 02:01:12;;;;;;;0.63;0.63;;;19.70;99.90;;;;;;4941340;29;20031;-93
2022/06/26 02:03:38;;;;;;;0.08;0.08;;;19.60;99.90;;;;;;4941341;29;20031;-94
2022/06/26 02:06:04;;;;;;;0.30;0.30;;;19.50;99.90;;;;;;4940860;29;20027;-93
2022/06/26 02:08:29;;;;;;;0.15;0.10;;;19.50;99.90;;;;;;4940559;29;20114;-93
2022/06/26 02:13:40;;;;;;;0.00;0.00;;;19.50;99.90;;;;;;4943858;29;20041;-93
2022/06/26 02:16:10;;;;;;;0.57;0.57;;;19.60;99.90;;;;;;4941220;29;20027;-93
2022/06/26 02:18:38;;;;;;;0.10;0.10;;;19.60;99.90;;;;;;4940590;29;20040;-92
2022/06/26 02:21:09;;;;;;;0.20;0.20;;;19.70;99.90;;;;;;4940487;29;20546;-93
2022/06/26 02:23:37;;;;;;;0.70;0.70;;;19.70;99.90;;;;;;4940514;29;20027;-93
2022/06/26 02:26:05;;;;;;;0.05;0.00;;;19.80;99.90;;;;;;4940821;29;20034;-92
2022/06/26 02:28:31;;;;;;;0.70;0.63;;;19.80;99.90;;;;;;4941027;29;20492;-95
2022/06/26 02:30:57;;;;;;;0.30;0.08;;;19.80;99.90;;;;;;4940909;29;20031;-94
2022/06/26 02:33:23;;;;;;;0.10;0.10;;;19.80;99.90;;;;;;4924600;29;20078;-93
2022/06/26 02:35:50;;;;;;;0.28;0.17;;;19.90;99.90;;;;;;4940492;29;20027;-93
2022/06/26 02:38:15;;;;;;;0.20;0.20;;;20.00;99.90;;;;;;4940522;29;20075;-94
2022/06/26 02:40:42;;;;;;;0.00;0.00;;;20.00;99.90;;;;;;4940587;29;20406;-93
2022/06/26 02:43:09;;;;;;;0.32;0.32;;;20.10;99.90;;;;;;4940818;29;20497;-93
2022/06/26 02:45:34;;;;;;;0.03;0.03;;;20.10;99.90;;;;;;4940122;29;20027;-93
2022/06/26 02:48:00;;;;;;;0.10;0.10;;;20.10;99.90;;;;;;4939668;29;20023;-93
2022/06/26 02:50:26;;;;;;;0.90;0.68;;;20.10;99.90;;;;;;4940064;29;20424;-93
2022/06/26 02:52:52;;;;;;;1.55;0.55;;;20.10;99.90;;;;;;4940284;29;20364;-94
2022/06/26 02:55:18;;;;;;;0.17;0.17;;;20.10;99.90;;;;;;4957083;29;20082;-94
2022/06/26 02:57:44;;;;;;;1.55;0.65;;;20.00;99.90;;;;;;4956977;29;20031;-94
2022/06/26 03:00:12;;;;;;;0.10;0.10;;;19.90;99.90;;;;;;4940096;29;20023;-94
2022/06/26 03:02:38;;;;;;;1.00;1.00;;;19.90;99.90;;;;;;4940090;29;20069;-93
2022/06/26 03:05:04;;;;;;;0.35;0.35;;;19.90;99.90;;;;;;4939687;29;20062;-93
2022/06/26 03:07:30;;;;;;;0.65;0.65;;;19.90;99.90;;;;;;4939638;29;20474;-93
2022/06/26 03:09:56;;;;;;;0.32;0.32;;;19.90;99.90;;;;;;4939979;29;20035;-93
2022/06/26 03:12:21;;;;;;;0.20;0.20;;;19.90;99.90;;;;;;4939756;29;20027;-93
2022/06/26 03:14:47;;;;;;;0.00;0.00;;;19.80;99.90;;;;;;4939616;29;20027;-93
2022/06/26 03:17:15;;;;;;;0.52;0.52;;;19.80;99.90;;;;;;4939368;29;20090;-93
2022/06/26 03:19:41;;;;;;;0.52;0.52;;;19.90;99.90;;;;;;4939032;29;20394;-94
2022/06/26 03:22:07;;;;;;;0.17;0.17;;;19.80;99.90;;;;;;4939953;29;20027;-94
2022/06/26 03:24:33;;;;;;;0.03;0.03;;;19.90;99.90;;;;;;4939755;29;20019;-93
2022/06/26 03:26:58;;;;;;;0.47;0.47;;;19.90;99.90;;;;;;4938997;29;20089;-94
2022/06/26 03:29:24;;;;;;;0.47;0.30;;;19.90;99.90;;;;;;4939177;29;20110;-93
2022/06/26 03:31:51;;;;;;;0.20;0.20;;;20.00;99.90;;;;;;4939808;29;20027;-93
2022/06/26 03:34:16;;;;;;;4.13;0.90;;;20.10;99.90;;;;;;4939262;29;20553;-93
2022/06/26 03:36:42;;;;;;;0.00;0.00;;;20.10;99.90;;;;;;4939627;29;20106;-93
2022/06/26 03:39:08;;;;;;;1.88;1.30;;;20.10;99.90;;;;;;4939484;29;20059;-93
2022/06/26 03:41:33;;;;;;;0.75;0.35;;;20.10;99.90;;;;;;4939197;29;20483;-93
2022/06/26 03:43:59;;;;;;;0.45;0.38;;;20.00;99.90;;;;;;4939093;29;20545;-92
2022/06/26 03:46:26;;;;;;;0.30;0.30;;;20.00;99.90;;;;;;4939286;29;20375;-92
2022/06/26 03:48:51;;;;;;;0.32;0.32;;;20.10;99.90;;;;;;4939274;29;20039;-93
2022/06/26 03:51:17;;;;;;;0.50;0.50;;;20.20;99.90;;;;;;4939243;29;20470;-93
2022/06/26 03:53:44;;;;;;;0.30;0.30;;;20.20;99.90;;;;;;4939596;29;20023;-93
2022/06/26 03:56:09;;;;;;;0.25;0.25;;;20.40;99.90;;;;;;4939516;29;20035;-93
2022/06/26 03:58:35;;;;;;;0.15;0.15;;;20.40;99.90;;;;;;4939262;29;20475;-92
2022/06/26 04:01:01;;;;;;;0.35;0.32;;;20.40;99.90;;;;;;4956201;29;20031;-94
2022/06/26 04:03:27;;;;;;;0.03;0.03;;;20.60;99.90;;;;;;4939237;29;20066;-91
2022/06/26 04:05:53;;;;;;;0.22;0.22;;;20.60;99.90;;;;;;4938903;29;20062;-93
2022/06/26 04:08:19;;;;;;;0.30;0.30;;;20.80;99.90;;;;;;4938903;29;20038;-93
2022/06/26 04:10:45;;;;;;;0.20;0.20;;;20.90;99.90;;;;;;4955980;29;20423;-93
2022/06/26 04:13:13;;;;;;;0.30;0.30;;;21.00;99.90;;;;;;4938722;29;20034;-93
2022/06/26 04:15:40;;;;;;;0.13;0.13;;;21.10;99.90;;;;;;4923150;29;20039;-93
2022/06/26 04:18:06;;;;;;;0.05;0.03;;;21.00;99.90;;;;;;4938695;29;20050;-93
2022/06/26 04:20:32;;;;;;;0.63;0.22;;;21.00;99.90;;;;;;4938763;29;20028;-93
2022/06/26 04:23:00;;;;;;;0.45;0.35;;;20.90;99.90;;;;;;4955857;29;20438;-92
2022/06/26 04:25:28;;;;;;;2.58;0.60;;;21.00;99.90;;;;;;4955732;29;20027;-92
2022/06/26 04:27:54;;;;;;;0.35;0.35;;;20.90;99.90;;;;;;4939081;29;20082;-92
2022/06/26 04:30:20;;;;;;;0.38;0.38;;;21.00;99.90;;;;;;4939120;29;20071;-92
2022/06/26 04:32:47;;;;;;;1.13;1.05;;;21.10;99.90;;;;;;4926846;29;20094;-93
2022/06/26 04:35:13;;;;;;;0.20;0.20;;;21.10;99.90;;;;;;4959775;29;20073;-92
2022/06/26 04:37:40;;;;;;;0.32;0.32;;;21.10;99.90;;;;;;4942231;29;20039;-93
2022/06/26 04:40:08;;;;;;;1.20;0.73;;;21.20;99.90;;;;;;4942789;29;20035;-92
2022/06/26 04:42:34;;;;;;;0.20;0.20;;;21.30;99.90;;;;;;4941857;29;20073;-94
2022/06/26 04:45:02;;;;;;;0.28;0.28;;;21.40;99.90;;;;;;4959489;29;20023;-92
2022/06/26 04:47:31;;;;;;;0.10;0.10;;;21.40;99.90;;;;;;4928200;29;20140;-92
2022/06/26 04:49:58;;;;;;;3.40;0.70;;;21.50;99.90;;;;;;4942407;29;20044;-92
2022/06/26 04:52:24;;;;;;;0.40;0.40;;;21.50;99.90;;;;;;4942529;29;20110;-93
2022/06/26 04:54:50;;;;;;;0.20;0.20;;;21.60;99.90;;;;;;4942034;29;20126;-92
2022/06/26 04:57:16;;;;;;;0.20;0.20;;;21.80;99.90;;;;;;4926615;29;20036;-91
2022/06/26 04:59:43;;;;;;;0.55;0.43;;;21.90;99.90;;;;;;4942047;29;20023;-93
2022/06/26 05:02:10;;;;;;;0.45;0.28;;;22.10;99.90;;;;;;4959129;29;20066;-93
2022/06/26 05:04:36;;;;;;;0.00;0.00;;;22.30;99.90;;;;;;4942343;29;20055;-94
2022/06/26 05:07:02;;;;;;;0.22;0.05;;;22.30;99.90;;;;;;4942036;29;20031;-92
2022/06/26 05:09:28;;;;;;;0.08;0.08;;;22.50;99.90;;;;;;4941628;29;20210;-93
2022/06/26 05:11:54;;;;;;;0.57;0.57;;;22.50;99.90;;;;;;4959173;29;20111;-92
2022/06/26 05:14:20;;;;;;;2.05;1.35;;;22.60;99.90;;;;;;4942222;29;20023;-93
2022/06/26 05:16:45;;;;;;;1.10;0.88;;;22.30;99.90;;;;;;4958948;29;20135;-92
2022/06/26 05:19:12;;;;;;;0.20;0.20;;;22.30;99.90;;;;;;4942205;29;20051;-93
2022/06/26 05:21:38;;;;;;;0.40;0.40;;;22.40;99.90;;;;;;4941609;29;20050;-93
2022/06/26 05:24:04;;;;;;;0.55;0.55;;;22.50;99.90;;;;;;4926019;29;20474;-92
2022/06/26 05:26:30;;;;;;;0.35;0.35;;;22.60;99.90;;;;;;4941079;29;20040;-92
2022/06/26 05:28:56;;;;;;;0.52;0.52;;;22.60;99.90;;;;;;4941549;29;20028;-92
2022/06/26 05:31:22;;;;;;;0.85;0.85;;;22.70;99.90;;;;;;4925823;29;20095;-94
2022/06/26 05:33:48;;;;;;;0.47;0.47;;;22.70;99.90;;;;;;4941475;29;20054;-92
2022/06/26 05:36:14;;;;;;;0.43;0.43;;;22.50;99.90;;;;;;4941907;29;20036;-94
2022/06/26 05:38:41;;;;;;;0.63;0.52;;;22.70;99.90;;;;;;4940884;29;20055;-94
2022/06/26 05:41:06;;;;;;;0.20;0.20;;;22.80;99.90;;;;;;4958389;29;20034;-93
2022/06/26 05:43:33;;;;;;;0.25;0.25;;;22.90;99.90;;;;;;4957369;28;20027;-92
2022/06/26 05:45:59;;;;;;;0.63;0.63;;;22.90;99.90;;;;;;4958443;29;20035;-94
2022/06/26 05:48:26;;;;;;;1.08;0.60;;;23.00;99.90;;;;;;4958339;29;20023;-94
2022/06/26 05:50:52;;;;;;;0.45;0.45;;;23.10;99.90;;;;;;4941073;29;20493;-92
2022/06/26 05:53:20;;;;;;;1.55;0.43;;;23.30;99.90;;;;;;4941170;29;20391;-93
2022/06/26 05:55:46;;;;;;;1.30;1.17;;;23.20;99.90;;;;;;4941277;29;20546;-93
2022/06/26 05:58:12;;;;;;;0.60;0.60;;;23.40;99.90;;;;;;4925437;29;20122;-93
2022/06/26 06:00:39;;;;;;;0.68;0.68;;;23.30;99.60;;;;;;4910486;29;20035;-93
2022/06/26 06:03:06;;;;;;;0.40;0.40;;;23.00;99.90;;;;;;4941128;29;20458;-92
2022/06/26 06:05:33;;;;;;;0.55;0.55;;;22.70;99.90;;;;;;4941033;29;20045;-93
2022/06/26 06:08:00;;;;;;;1.17;1.17;;;22.80;99.90;;;;;;4940973;29;20027;-94
2022/06/26 06:10:27;;;;;;;0.03;0.03;;;22.80;99.90;;;;;;4940931;29;20035;-93
2022/06/26 06:12:53;;;;;;;0.63;0.63;;;22.80;99.90;;;;;;4940877;29;20542;-93
2022/06/26 06:15:20;;;;;;;0.40;0.40;;;22.70;99.90;;;;;;4940812;29;20027;-93
2022/06/26 06:17:46;;;;;;;0.80;0.75;;;22.90;99.90;;;;;;4924632;29;20058;-94
2022/06/26 06:20:21;;;;;;;0.40;0.40;;;23.00;99.90;;;;;;4940785;29;20027;-94
2022/06/26 06:22:52;;;;;;;0.80;0.60;;;23.20;99.90;;;;;;4940611;29;20024;-93
2022/06/26 06:25:19;;;;;;;0.73;0.73;;;23.40;99.90;;;;;;4941347;29;20085;-93
2022/06/26 06:27:45;;;;;;;0.22;0.22;;;23.40;99.90;;;;;;4940357;29;20114;-93
2022/06/26 06:30:12;;;;;;;1.23;1.10;;;23.50;99.80;;;;;;4940520;29;20454;-93
2022/06/26 06:32:40;;;;;;;0.10;0.10;;;23.40;99.90;;;;;;4957443;29;20052;-93
2022/06/26 06:35:07;;;;;;;0.30;0.30;;;23.70;99.90;;;;;;4940484;29;20126;-93
2022/06/26 06:37:33;;;;;;;0.20;0.20;;;23.80;99.30;;;;;;4940575;29;20063;-93
2022/06/26 06:39:59;;;;;;;0.75;0.75;;;23.90;99.50;;;;;;4940498;29;20039;-92
2022/06/26 06:42:25;;;;;;;1.48;0.70;;;24.20;98.90;;;;;;4940651;29;20082;-93
2022/06/26 06:44:51;;;;;;;0.00;0.00;;;24.50;99.40;;;;;;4924719;29;20032;-92
2022/06/26 06:47:17;;;;;;;0.80;0.40;;;24.80;98.30;;;;;;4924739;29;20027;-93
2022/06/26 06:49:43;;;;;;;0.80;0.80;;;24.90;97.40;;;;;;4940385;29;20046;-93
2022/06/26 06:52:09;;;;;;;1.85;0.75;;;25.20;96.40;;;;;;4940007;29;20031;-92
2022/06/26 06:54:35;;;;;;;1.02;0.95;;;25.40;97.20;;;;;;4957008;28;20035;-94
2022/06/26 06:57:01;;;;;;;0.30;0.30;;;25.50;95.30;;;;;;4940085;29;20051;-93
2022/06/26 06:59:27;;;;;;;2.58;0.40;;;25.60;95.50;;;;;;4940171;29;20050;-93
2022/06/26 07:01:53;;;;;;;0.50;0.50;;;25.50;94.80;;;;;;4939735;29;20038;-92
2022/06/26 07:04:19;;;;;;;0.13;0.13;;;25.40;94.20;;;;;;4939771;29;20074;-93
2022/06/26 07:06:45;;;;;;;0.43;0.43;;;25.40;94.20;;;;;;4940119;29;20027;-94
2022/06/26 07:09:11;;;;;;;0.80;0.80;;;25.40;94.70;;;;;;4939502;29;20106;-94
2022/06/26 07:11:38;;;;;;;0.32;0.32;;;24.80;95.20;;;;;;4957275;29;20031;-91
2022/06/26 07:14:05;;;;;;;0.38;0.28;;;25.10;94.60;;;;;;4939703;29;20070;-94
2022/06/26 07:16:32;;;;;;;0.55;0.32;;;25.20;94.60;;;;;;4939545;29;20028;-93
2022/06/26 07:18:58;;;;;;;0.93;0.93;;;25.20;93.60;;;;;;4939532;29;20382;-95
2022/06/26 07:21:23;;;;;;;2.45;0.73;;;25.20;93.90;;;;;;4939797;29;20030;-93
2022/06/26 07:23:49;;;;;;;1.65;1.55;;;25.40;93.50;;;;;;4924098;29;20023;-95
2022/06/26 07:26:16;;;;;;;0.75;0.75;;;25.60;93.50;;;;;;4956681;29;20035;-92
2022/06/26 07:28:42;;;;;;;0.43;0.43;;;25.40;93.50;;;;;;4939622;29;20053;-91
2022/06/26 07:31:09;;;;;;;0.65;0.63;;;25.10;94.00;;;;;;4924360;29;20482;-92
2022/06/26 07:36:18;;;;;;;1.83;1.48;;;25.10;93.20;;;;;;4956881;29;20042;-94
2022/06/26 07:38:44;;;;;;;1.13;1.08;;;24.90;93.50;;;;;;4956505;29;20437;-93
2022/06/26 07:41:10;;;;;;;0.57;0.50;;;24.80;94.60;;;;;;4939148;29;20030;-91
2022/06/26 07:43:35;;;;;;;0.28;0.28;;;24.80;93.90;;;;;;4956534;29;20098;-91
2022/06/26 07:46:01;;;;;;;0.47;0.47;;;24.90;94.50;;;;;;4939035;29;20489;-92
2022/06/26 07:48:27;;;;;;;0.60;0.60;;;25.00;94.00;;;;;;4939546;29;20113;-92
2022/06/26 07:50:53;;;;;;;0.47;0.47;;;25.10;92.60;;;;;;4939407;29;20031;-91
2022/06/26 07:53:19;;;;;;;0.40;0.40;;;25.10;93.00;;;;;;4939035;29;20035;-92
2022/06/26 07:55:45;;;;;;;0.77;0.77;;;25.00;93.20;;;;;;4938822;29;20055;-91
2022/06/26 07:58:11;;;;;;;0.73;0.73;;;24.70;93.40;;;;;;4956113;29;20015;-91
2022/06/26 08:00:37;;;;;;;0.77;0.60;;;24.70;93.60;;;;;;4938886;29;20039;-89
2022/06/26 08:03:11;;;;;;;0.40;0.40;;;24.60;94.00;;;;;;4955833;29;20027;-91
2022/06/26 08:05:38;;;;;;;0.47;0.47;;;24.60;94.10;;;;;;4939718;29;20059;-92
2022/06/26 08:08:05;;;;;;;0.68;0.52;;;24.50;94.10;;;;;;4942759;29;20025;-92
2022/06/26 08:10:31;;;;;;;0.60;0.60;;;24.50;94.50;;;;;;4959685;29;20023;-93
2022/06/26 08:12:59;;;;;;;0.40;0.40;;;24.60;94.90;;;;;;4943261;29;20031;-92
2022/06/26 08:15:25;;;;;;;0.55;0.55;;;24.60;95.10;;;;;;4927337;29;20386;-93
2022/06/26 08:17:51;;;;;;;0.52;0.52;;;24.60;94.50;;;;;;4942791;29;20524;-91
2022/06/26 08:20:18;;;;;;;0.77;0.77;;;24.60;94.30;;;;;;4960074;29;20047;-92
2022/06/26 08:22:44;;;;;;;0.70;0.65;;;24.60;94.10;;;;;;4944906;29;20027;-90
2022/06/26 08:25:10;;;;;;;1.25;1.15;;;24.80;93.80;;;;;;4942668;29;20031;-90
2022/06/26 08:27:36;;;;;;;0.63;0.63;;;25.00;94.10;;;;;;4942691;29;20128;-90
2022/06/26 08:30:03;;;;;;;1.67;0.68;;;25.00;93.40;;;;;;4942728;29;20042;-91
2022/06/26 08:32:29;;;;;;;0.43;0.43;;;25.00;93.40;;;;;;4959504;29;20039;-90
2022/06/26 08:34:55;;;;;;;0.20;0.20;;;25.00;93.60;;;;;;4942628;29;20430;-91
2022/06/26 08:37:20;;;;;;;0.32;0.32;;;25.10;93.40;;;;;;4959271;29;20035;-91
2022/06/26 08:39:47;;;;;;;0.32;0.32;;;25.10;93.40;;;;;;4942841;29;20497;-91
2022/06/26 08:42:12;;;;;;;0.22;0.20;;;25.30;92.90;;;;;;4942473;29;20114;-92
2022/06/26 08:44:44;;;;;;;1.25;0.47;;;25.40;93.10;;;;;;4942458;29;20027;-92
2022/06/26 08:47:16;;;;;;;0.22;0.22;;;25.50;92.00;;;;;;4942514;29;20031;-91
2022/06/26 08:49:42;;;;;;;1.80;1.27;;;25.40;92.30;;;;;;4926739;29;20031;-91
2022/06/26 08:52:15;;;;;;;1.27;1.17;;;25.60;92.20;;;;;;4942042;29;20035;-92
2022/06/26 08:54:41;;;;;;;0.20;0.20;;;25.70;92.00;;;;;;4942453;29;20031;-92
2022/06/26 08:57:07;;;;;;;1.58;1.40;;;25.90;93.00;;;;;;4941787;29;20046;-91
2022/06/26 08:59:33;;;;;;;0.47;0.47;;;26.00;91.80;;;;;;4959185;29;20032;-92
2022/06/26 09:01:59;;;;;;;0.77;0.43;;;26.10;92.80;;;;;;4926583;29;20497;-92
2022/06/26 09:04:25;;;;;;;1.20;1.10;;;26.30;92.80;;;;;;4942229;29;20065;-93
2022/06/26 09:06:51;;;;;;;0.60;0.52;;;26.50;92.40;;;;;;4926372;29;20035;-94
2022/06/26 09:09:25;;;;;;;0.68;0.68;;;26.60;91.30;;;;;;4959253;29;20467;-92
2022/06/26 09:11:58;;;;;;;1.08;1.08;;;26.40;90.30;;;;;;4942387;29;20450;-92
2022/06/26 09:14:24;;;;;;;0.45;0.45;;;26.30;89.60;;;;;;4942070;29;20086;-93
2022/06/26 09:16:52;;;;;;;1.35;0.80;;;26.40;90.10;;;;;;4941255;29;20047;-93
2022/06/26 09:19:20;;;;;;;0.90;0.90;;;26.40;89.90;;;;;;4941756;29;20094;-93
2022/06/26 09:21:52;;;;;;;0.50;0.50;;;26.40;88.10;;;;;;4941849;29;20047;-93
2022/06/26 09:24:22;;;;;;;1.02;0.52;;;26.60;90.90;;;;;;4958740;29;20026;-94
2022/06/26 09:27:14;;;;;;;0.22;0.22;;;27.00;88.30;;;;;;4941708;29;20031;-93
2022/06/26 09:29:40;;;;;;;0.30;0.30;;;27.10;86.90;;;;;;4941944;29;20034;-93
2022/06/26 09:32:15;;;;;;;0.55;0.55;;;27.00;84.90;;;;;;4959386;29;20031;-93
2022/06/26 09:34:46;;;;;;;0.82;0.70;;;27.00;87.50;;;;;;4941794;29;20035;-92
2022/06/26 09:37:13;;;;;;;0.30;0.30;;;27.00;84.90;;;;;;4941371;29;20053;-92
2022/06/26 09:39:39;;;;;;;0.20;0.20;;;27.00;83.80;;;;;;4941415;29;20089;-93
2022/06/26 09:42:21;;;;;;;0.57;0.57;;;27.20;84.80;;;;;;4941763;29;20028;-95
2022/06/26 09:44:52;;;;;;;0.47;0.30;;;27.20;81.70;;;;;;4941394;29;20497;-94
2022/06/26 09:47:31;;;;;;;0.40;0.40;;;27.30;81.90;;;;;;4925624;29;20035;-95
2022/06/26 09:50:00;;;;;;;0.38;0.32;;;27.50;82.00;;;;;;4958651;29;20027;-94
2022/06/26 09:52:28;;;;;;;0.05;0.05;;;27.60;81.70;;;;;;4941098;29;20031;-96
2022/06/26 09:54:55;;;;;;;0.57;0.57;;;27.70;83.20;;;;;;4958340;29;20035;-93
2022/06/26 09:57:22;;;;;;;0.00;0.00;;;27.90;81.80;;;;;;4941164;29;20031;-95
2022/06/26 09:59:48;;;;;;;0.40;0.40;;;27.90;77.20;;;;;;4941008;29;20031;-95
2022/06/26 10:07:52;;;;;;;0.28;0.25;;;28.10;76.20;;;;;;4944770;29;20089;-95
2022/06/26 10:10:20;;;;;;;0.52;0.52;;;28.30;74.80;;;;;;4940851;29;20027;-95
2022/06/26 10:12:49;;;;;;;0.10;0.10;;;28.60;78.20;;;;;;4941082;29;20463;-94
2022/06/26 10:15:19;;;;;;;0.45;0.45;;;28.50;76.00;;;;;;4941149;29;20137;-95
2022/06/26 10:17:54;;;;;;;;;;;28.50;75.60;;;;;;4925290;29;20487;-94
2022/06/26 10:20:23;;;;;;;0.43;0.43;;;28.70;76.50;;;;;;4957845;29;19906;-95
2022/06/26 10:22:49;;;;;;;0.10;0.10;;;28.90;77.00;;;;;;4940605;29;20046;-95
2022/06/26 10:25:24;;;;;;;0.22;0.22;;;28.90;75.90;;;;;;4940621;29;20058;-95
2022/06/26 10:27:50;;;;;;;0.10;0.10;;;28.50;73.80;;;;;;4958040;28;20027;-95
2022/06/26 10:30:19;;;;;;;0.32;0.32;;;28.70;76.30;;;;;;4940110;29;20201;-95
2022/06/26 10:32:46;;;;;;;0.57;0.57;;;28.70;74.70;;;;;;4925205;29;20478;-95
2022/06/26 10:35:13;;;;;;;0.13;0.13;;;29.00;73.00;;;;;;4940700;29;20043;-93
2022/06/26 10:37:49;;;;;;;0.13;0.13;;;29.10;72.90;;;;;;4940187;29;20118;-94
2022/06/26 10:42:52;;;;;;;0.40;0.40;;;29.00;70.70;;;;;;4941388;29;20031;-96
2022/06/26 10:43:03;;;;;;;0.20;0.20;;;28.90;70.70;;;;;;4942896;29;20106;-96
2022/06/26 10:45:47;;;;;;;0.38;0.38;;;28.80;70.80;;;;;;4940652;29;20037;-95
2022/06/26 10:48:21;;;;;;;0.00;0.00;;;29.00;70.20;;;;;;4936140;29;20027;-94
2022/06/26 10:51:01;;;;;;;0.10;0.10;;;29.20;71.90;;;;;;4940344;29;20371;-93
2022/06/26 10:53:30;;;;;;;0.00;0.00;;;29.40;69.20;;;;;;4925271;29;20035;-94
2022/06/26 10:56:02;;;;;;;0.10;0.10;;;29.80;67.80;;;;;;4940045;29;20035;-94
2022/06/26 10:58:30;;;;;;;0.90;0.47;;;30.00;68.00;;;;;;4924611;29;20023;-94
2022/06/26 11:01:02;;;;;;;0.05;0.05;;;30.10;67.10;;;;;;4940340;29;20058;-94
2022/06/26 11:03:29;;;;;;;0.00;0.00;;;30.30;70.40;;;;;;4958332;29;20027;-95
2022/06/26 11:06:15;;;;;;;0.00;0.00;;;30.30;68.20;;;;;;4941390;29;20529;-96
2022/06/26 11:08:50;;;;;;;0.00;0.00;;;30.40;68.80;;;;;;4940193;29;20044;-96
2022/06/26 11:11:30;;;;;;;0.00;0.00;;;30.10;65.60;;;;;;4925272;29;20024;-91
2022/06/26 11:14:06;;;;;;;1.02;0.47;;;30.00;64.30;;;;;;4940216;29;20505;-90
2022/06/26 11:16:44;;;;;;;0.28;0.28;;;29.80;64.70;;;;;;4939736;29;20034;-90
2022/06/26 11:19:27;;;;;;;0.43;0.17;;;30.10;67.10;;;;;;4939380;29;20030;-93
2022/06/26 11:22:06;;;;;;;0.22;0.22;;;30.20;65.20;;;;;;4936841;29;20075;-92
2022/06/26 11:24:32;;;;;;;7.03;1.15;;;30.40;62.40;;;;;;4939859;29;20423;-92
2022/06/26 11:26:58;;;;;;;0.10;0.10;;;30.20;64.90;;;;;;4939326;29;20046;-91
2022/06/26 11:29:24;;;;;;;0.35;0.35;;;30.30;64.20;;;;;;4939384;29;20031;-90
2022/06/26 11:31:51;;;;;;;0.30;0.30;;;30.20;65.00;;;;;;4939877;29;20027;-94
2022/06/26 11:34:18;;;;;;;0.40;0.40;;;30.10;65.10;;;;;;4939739;29;20054;-92
2022/06/26 11:36:58;;;;;;;0.03;0.03;;;30.00;65.40;;;;;;4939408;29;20035;-94
2022/06/26 11:39:24;;;;;;;0.28;0.28;;;30.10;65.90;;;;;;4935173;29;20475;-91
2022/06/26 11:41:52;;;;;;;0.00;0.00;;;30.00;66.10;;;;;;4938391;29;20490;-90
2022/06/26 11:44:18;;;;;;;0.10;0.10;;;30.00;67.10;;;;;;4939288;29;20019;-92
2022/06/26 11:46:45;;;;;;;0.00;0.00;;;30.10;66.30;;;;;;4939337;29;20031;-93
2022/06/26 11:49:11;;;;;;;0.13;0.13;;;30.20;64.70;;;;;;4939536;29;20062;-90
2022/06/26 11:51:37;;;;;;;0.45;0.45;;;30.60;64.40;;;;;;4939221;29;20031;-91
2022/06/26 11:54:04;;;;;;;0.35;0.35;;;31.10;64.80;;;;;;4939307;29;20023;-92
2022/06/26 11:56:32;;;;;;;0.38;0.28;;;31.10;64.50;;;;;;4956323;29;20091;-96
2022/06/26 11:58:59;;;;;;;0.60;0.25;;;31.80;61.10;;;;;;4939483;29;20038;-92
2022/06/26 12:01:36;;;;;;;0.13;0.13;;;32.50;61.50;;;;;;4939117;29;20402;-93
2022/06/26 12:04:03;;;;;;;0.40;0.40;;;33.10;60.70;;;;;;4939074;29;20537;-91
2022/06/26 12:06:42;;;;;;;0.35;0.35;;;34.10;60.50;;;;;;4939127;29;20446;-93
2022/06/26 12:09:17;;;;;;;0.25;0.25;;;34.80;57.20;;;;;;4956548;29;20451;-93
2022/06/26 12:11:44;;;;;;;0.15;0.15;;;35.80;55.50;;;;;;4939190;29;20023;-94
2022/06/26 12:14:16;;;;;;;0.40;0.40;;;36.00;53.40;;;;;;4939316;29;20024;-93
2022/06/26 12:16:56;;;;;;;0.10;0.10;;;36.40;52.40;;;;;;4940086;29;20059;-96
2022/06/26 12:19:23;;;;;;;0.30;0.30;;;37.00;53.40;;;;;;4935702;29;20027;-95
2022/06/26 12:21:54;;;;;;;0.25;0.25;;;37.20;51.70;;;;;;4939139;29;20090;-95
2022/06/26 12:24:21;;;;;;;0.15;0.15;;;37.30;51.80;;;;;;4939821;29;20038;-96
2022/06/26 12:26:48;;;;;;;0.03;0.03;;;37.40;50.30;;;;;;4940963;29;20032;-95
2022/06/26 12:29:16;;;;;;;0.22;0.22;;;37.50;51.40;;;;;;4940994;29;20039;-95
2022/06/26 12:31:43;;;;;;;0.20;0.20;;;37.50;50.80;;;;;;4938915;29;20117;-96
2022/06/26 12:34:10;;;;;;;0.10;0.10;;;37.90;50.80;;;;;;4938651;29;20261;-96
2022/06/26 12:36:37;;;;;;;0.20;0.20;;;37.30;51.10;;;;;;4940256;29;20046;-93
2022/06/26 12:39:04;;;;;;;0.10;0.10;;;37.50;50.20;;;;;;4955952;29;20110;-95
2022/06/26 12:41:30;;;;;;;0.15;0.15;;;37.50;48.90;;;;;;4939711;29;20038;-95
2022/06/26 12:43:59;;;;;;;0.17;0.17;;;37.80;49.40;;;;;;4938775;29;20035;-94
2022/06/26 12:46:25;;;;;;;0.65;0.43;;;38.30;50.70;;;;;;4938727;29;20051;-95
2022/06/26 12:48:51;;;;;;;0.47;0.47;;;38.50;47.70;;;;;;4939335;29;20023;-96
2022/06/26 12:51:17;;;;;;;0.73;0.73;;;37.50;49.40;;;;;;4938586;28;20059;-96
2022/06/26 12:53:43;;;;;;;0.52;0.52;;;37.90;48.50;;;;;;4942175;29;20023;-96
2022/06/26 12:56:11;;;;;;;0.75;0.75;;;38.40;49.20;;;;;;4959371;29;20482;-96
2022/06/26 12:58:37;;;;;;;0.90;0.65;;;39.00;49.40;;;;;;4942448;29;20398;-96
2022/06/26 13:01:05;;;;;;;0.20;0.20;;;39.10;46.70;;;;;;4943622;29;20033;-96